Time;durP1;ratioP1;P1;durP2;ratioP2;P2;SDS_P1;SDS_P2;PMS_P1;PMS_P2;Temp;Humidity;BMP_temperature;BMP_pressure;BME280_temperature;BME280_humidity;BME280_pressure;Samples;Min_cycle;Max_cycle;Signal;HPM_P1;HPM_P2
2023/12/29 00:00:00;;;;;;;1.60;1.23;;;;;;;;;;4998333;28;20038;-80
2023/12/29 00:02:26;;;;;;;1.52;1.42;;;;;;;;;;4998233;28;20547;-82
2023/12/29 00:04:51;;;;;;;2.53;1.58;;;;;;;;;;4982648;28;20041;-83
2023/12/29 00:07:16;;;;;;;1.73;1.63;;;;;;;;;;4999589;28;20062;-83
2023/12/29 00:09:41;;;;;;;2.15;1.35;;;;;;;;;;4999935;28;20118;-80
2023/12/29 00:12:07;;;;;;;1.50;1.40;;;;;;;;;;4999246;28;20057;-80
2023/12/29 00:14:33;;;;;;;2.13;1.33;;;;;;;;;;4982011;28;20177;-82
2023/12/29 00:16:59;;;;;;;2.47;1.55;;;;;;;;;;4999451;28;20041;-80
2023/12/29 00:19:24;;;;;;;1.77;1.67;;;;;;;;;;4998484;28;20042;-81
2023/12/29 00:21:50;;;;;;;1.65;1.55;;;;;;;;;;4986369;28;20439;-82
2023/12/29 00:24:16;;;;;;;4.63;1.65;;;;;;;;;;4979874;28;20546;-82
2023/12/29 00:26:42;;;;;;;3.50;1.85;;;;;;;;;;4980332;28;20034;-79
2023/12/29 00:29:07;;;;;;;2.15;1.40;;;;;;;;;;4963071;28;20050;-82
2023/12/29 00:31:33;;;;;;;2.00;1.65;;;;;;;;;;4978588;28;20058;-83
2023/12/29 00:33:58;;;;;;;1.85;1.63;;;;;;;;;;4962632;28;20066;-80
2023/12/29 00:36:24;;;;;;;1.55;1.40;;;;;;;;;;4979656;28;20060;-80
2023/12/29 00:38:49;;;;;;;2.55;1.90;;;;;;;;;;4963288;28;20506;-82
2023/12/29 00:41:14;;;;;;;2.17;1.80;;;;;;;;;;4962553;28;20046;-80
2023/12/29 00:43:40;;;;;;;1.25;1.15;;;;;;;;;;4979676;28;20039;-81
2023/12/29 00:46:05;;;;;;;1.60;1.50;;;;;;;;;;4979715;28;20043;-81
2023/12/29 00:48:31;;;;;;;1.58;1.48;;;;;;;;;;4980664;28;20051;-81
2023/12/29 00:50:56;;;;;;;1.45;1.38;;;;;;;;;;4963413;28;20300;-81
2023/12/29 00:53:22;;;;;;;1.80;1.50;;;;;;;;;;4979762;28;20047;-81
2023/12/29 00:55:47;;;;;;;4.03;1.33;;;;;;;;;;4978483;28;20558;-81
2023/12/29 00:58:12;;;;;;;1.98;1.50;;;;;;;;;;4979715;28;20039;-82
2023/12/29 01:00:38;;;;;;;2.65;1.65;;;;;;;;;;4979319;28;20042;-80
2023/12/29 01:03:03;;;;;;;1.40;1.30;;;;;;;;;;4979401;28;20045;-80
2023/12/29 01:05:29;;;;;;;1.92;1.75;;;;;;;;;;4962995;28;20026;-82
2023/12/29 01:07:54;;;;;;;2.05;1.88;;;;;;;;;;4978860;28;20050;-81
2023/12/29 01:10:20;;;;;;;1.70;1.60;;;;;;;;;;4961946;28;20058;-79
2023/12/29 01:12:45;;;;;;;2.10;1.60;;;;;;;;;;4960097;28;20035;-82
2023/12/29 01:15:11;;;;;;;1.60;1.50;;;;;;;;;;4979376;28;20035;-81
2023/12/29 01:17:36;;;;;;;2.58;1.38;;;;;;;;;;4979174;28;20472;-80
2023/12/29 01:20:04;;;;;;;3.97;1.60;;;;;;;;;;4961615;28;20089;-81
2023/12/29 01:22:29;;;;;;;2.85;1.40;;;;;;;;;;4978512;28;20078;-81
2023/12/29 01:24:54;;;;;;;1.50;1.40;;;;;;;;;;4983808;28;20031;-80
2023/12/29 01:27:19;;;;;;;2.28;1.42;;;;;;;;;;4963257;28;20035;-81
2023/12/29 01:29:45;;;;;;;2.17;1.60;;;;;;;;;;4981145;28;20070;-81
2023/12/29 01:32:10;;;;;;;1.90;1.60;;;;;;;;;;4980109;28;20058;-81
2023/12/29 01:34:35;;;;;;;1.98;1.40;;;;;;;;;;4962362;28;20043;-81
2023/12/29 01:37:03;;;;;;;2.28;1.63;;;;;;;;;;4977926;28;20467;-81
2023/12/29 01:39:29;;;;;;;1.40;1.30;;;;;;;;;;4978290;28;20470;-81
2023/12/29 01:41:57;;;;;;;1.67;1.58;;;;;;;;;;4968362;28;20026;-81
2023/12/29 01:44:23;;;;;;;2.15;1.50;;;;;;;;;;4998453;28;20569;-80
2023/12/29 01:46:51;;;;;;;1.75;1.63;;;;;;;;;;4979410;28;20045;-81
2023/12/29 01:49:18;;;;;;;3.65;1.67;;;;;;;;;;4981483;28;20042;-82
2023/12/29 01:51:45;;;;;;;2.67;1.70;;;;;;;;;;4983163;28;20034;-81
2023/12/29 01:54:12;;;;;;;1.50;1.40;;;;;;;;;;4999413;28;20058;-80
2023/12/29 01:56:38;;;;;;;3.45;1.80;;;;;;;;;;4998909;28;20030;-82
2023/12/29 01:59:04;;;;;;;3.20;1.38;;;;;;;;;;4998376;28;20050;-80
2023/12/29 02:01:29;;;;;;;1.35;1.23;;;;;;;;;;4998207;28;20033;-80
2023/12/29 02:03:55;;;;;;;1.50;1.40;;;;;;;;;;4997356;28;20462;-82
2023/12/29 02:06:21;;;;;;;1.52;1.42;;;;;;;;;;4994128;28;20100;-82
2023/12/29 02:08:47;;;;;;;1.13;1.13;;;;;;;;;;4995298;28;20456;-82
2023/12/29 02:11:13;;;;;;;1.38;1.27;;;;;;;;;;4994250;28;20034;-81
2023/12/29 02:13:39;;;;;;;2.50;1.55;;;;;;;;;;4994538;28;20067;-82
2023/12/29 02:16:11;;;;;;;1.58;1.33;;;;;;;;;;4995470;28;20574;-81
2023/12/29 02:18:39;;;;;;;1.60;1.17;;;;;;;;;;4996801;28;20031;-82
2023/12/29 02:21:04;;;;;;;2.28;1.50;;;;;;;;;;4995465;28;20030;-81
2023/12/29 02:23:30;;;;;;;1.40;1.30;;;;;;;;;;4996046;28;20034;-81
2023/12/29 02:26:02;;;;;;;1.50;1.40;;;;;;;;;;4962776;28;20042;-80
2023/12/29 02:28:28;;;;;;;1.67;1.40;;;;;;;;;;4995897;28;20042;-81
2023/12/29 02:31:19;;;;;;;0.90;0.90;;;;;;;;;;4995896;28;20050;-81
2023/12/29 02:33:45;;;;;;;1.50;1.40;;;;;;;;;;4971897;28;20342;-81
2023/12/29 02:36:13;;;;;;;4.57;1.30;;;;;;;;;;4996024;28;20121;-81
2023/12/29 02:38:39;;;;;;;1.55;1.33;;;;;;;;;;4996700;28;20061;-80
2023/12/29 02:41:05;;;;;;;4.00;1.45;;;;;;;;;;4995043;28;20417;-81
2023/12/29 02:43:33;;;;;;;2.03;1.30;;;;;;;;;;4995174;28;20121;-82
2023/12/29 02:45:59;;;;;;;1.35;1.25;;;;;;;;;;4996453;28;20035;-82
2023/12/29 02:48:24;;;;;;;2.17;1.60;;;;;;;;;;4961769;28;20406;-82
2023/12/29 02:50:49;;;;;;;3.08;1.50;;;;;;;;;;4995796;28;20046;-82
2023/12/29 02:53:15;;;;;;;1.55;1.45;;;;;;;;;;4995410;28;20149;-81
2023/12/29 02:55:41;;;;;;;1.50;1.40;;;;;;;;;;4978100;28;20053;-81
2023/12/29 02:58:07;;;;;;;1.40;1.30;;;;;;;;;;4996043;28;20503;-81
2023/12/29 03:00:32;;;;;;;1.58;1.42;;;;;;;;;;4961950;28;20117;-79
2023/12/29 03:02:58;;;;;;;1.75;1.45;;;;;;;;;;4995697;28;20439;-79
2023/12/29 03:05:23;;;;;;;2.15;1.23;;;;;;;;;;4994658;28;20073;-80
2023/12/29 03:07:49;;;;;;;1.73;1.50;;;;;;;;;;4978221;28;20030;-80
2023/12/29 03:10:14;;;;;;;1.58;1.33;;;;;;;;;;4978295;28;20034;-81
2023/12/29 03:12:39;;;;;;;2.63;1.23;;;;;;;;;;4977199;28;20572;-81
2023/12/29 03:15:05;;;;;;;1.20;1.10;;;;;;;;;;4978455;28;20100;-80
2023/12/29 03:17:30;;;;;;;1.42;1.20;;;;;;;;;;4978634;28;20041;-83
2023/12/29 03:19:55;;;;;;;1.30;1.20;;;;;;;;;;4995553;28;20034;-81
2023/12/29 03:22:21;;;;;;;1.20;1.10;;;;;;;;;;4995734;28;20038;-83
2023/12/29 03:24:46;;;;;;;1.23;1.00;;;;;;;;;;4995981;28;20287;-81
2023/12/29 03:27:11;;;;;;;2.35;1.25;;;;;;;;;;4995531;28;20430;-80
2023/12/29 03:29:37;;;;;;;1.70;1.38;;;;;;;;;;4994407;28;20093;-81
2023/12/29 03:32:02;;;;;;;1.52;1.40;;;;;;;;;;4994613;28;20031;-81
2023/12/29 03:34:28;;;;;;;4.05;1.40;;;;;;;;;;4995738;28;20038;-80
2023/12/29 03:36:53;;;;;;;2.05;1.20;;;;;;;;;;4999552;28;20053;-80
2023/12/29 03:39:19;;;;;;;5.43;1.33;;;;;;;;;;4999073;28;20031;-82
2023/12/29 03:41:44;;;;;;;1.48;1.10;;;;;;;;;;4999835;28;20095;-82
2023/12/29 03:44:09;;;;;;;1.75;1.30;;;;;;;;;;4999538;28;20034;-81
2023/12/29 03:46:35;;;;;;;1.30;1.20;;;;;;;;;;4981738;28;20089;-81
2023/12/29 03:49:00;;;;;;;1.40;1.30;;;;;;;;;;4998837;28;20053;-80
2023/12/29 03:51:25;;;;;;;1.80;1.25;;;;;;;;;;4964687;28;20117;-82
2023/12/29 03:53:50;;;;;;;1.50;1.35;;;;;;;;;;4999571;28;20058;-81
2023/12/29 03:56:18;;;;;;;1.40;1.30;;;;;;;;;;4981581;28;20065;-82
2023/12/29 03:58:47;;;;;;;1.73;1.27;;;;;;;;;;4998813;28;20066;-83
2023/12/29 04:01:17;;;;;;;1.17;1.15;;;;;;;;;;4998399;28;20041;-81
2023/12/29 04:03:43;;;;;;;1.85;1.50;;;;;;;;;;4998253;28;20038;-81
2023/12/29 04:06:08;;;;;;;1.48;1.00;;;;;;;;;;4979507;28;20042;-81
2023/12/29 04:08:34;;;;;;;1.83;1.17;;;;;;;;;;4997859;28;20034;-82
2023/12/29 04:10:59;;;;;;;2.92;1.40;;;;;;;;;;4996124;28;20126;-81
2023/12/29 04:13:25;;;;;;;2.13;1.45;;;;;;;;;;4979675;28;20054;-80
2023/12/29 04:15:50;;;;;;;1.05;1.05;;;;;;;;;;4998643;28;20508;-81
2023/12/29 04:18:16;;;;;;;3.47;1.48;;;;;;;;;;4994513;28;20042;-78
2023/12/29 04:20:41;;;;;;;1.75;1.20;;;;;;;;;;4986725;28;20511;-78
2023/12/29 04:23:07;;;;;;;1.33;1.23;;;;;;;;;;4986542;28;20267;-78
2023/12/29 04:25:33;;;;;;;1.73;1.20;;;;;;;;;;4986562;28;20046;-78
2023/12/29 04:27:58;;;;;;;1.50;1.40;;;;;;;;;;5001079;28;20035;-78
2023/12/29 04:30:24;;;;;;;2.88;1.40;;;;;;;;;;5006675;28;20038;-78
2023/12/29 04:32:49;;;;;;;1.30;1.20;;;;;;;;;;5007535;28;20038;-78
2023/12/29 04:35:15;;;;;;;1.40;1.30;;;;;;;;;;4999028;28;20042;-78
2023/12/29 04:37:42;;;;;;;2.42;1.00;;;;;;;;;;5003998;28;20070;-78
2023/12/29 04:40:08;;;;;;;2.33;1.30;;;;;;;;;;5003746;28;20042;-78
2023/12/29 04:42:33;;;;;;;1.40;1.30;;;;;;;;;;5004279;28;20034;-78
2023/12/29 04:44:58;;;;;;;1.88;1.10;;;;;;;;;;5002932;28;20022;-78
2023/12/29 04:47:24;;;;;;;4.80;1.30;;;;;;;;;;4985549;28;20031;-79
2023/12/29 04:49:49;;;;;;;2.45;1.20;;;;;;;;;;4972187;28;20035;-79
2023/12/29 04:52:14;;;;;;;1.25;1.10;;;;;;;;;;4979068;28;20074;-78
2023/12/29 04:54:39;;;;;;;1.23;1.20;;;;;;;;;;4982425;28;20394;-78
2023/12/29 04:57:05;;;;;;;1.15;1.05;;;;;;;;;;4988709;28;20031;-78
2023/12/29 04:59:30;;;;;;;1.73;1.10;;;;;;;;;;4983997;28;20255;-78
2023/12/29 05:01:55;;;;;;;1.20;1.10;;;;;;;;;;4983655;28;20042;-78
2023/12/29 05:04:20;;;;;;;1.13;1.13;;;;;;;;;;4966428;28;20034;-78
2023/12/29 05:06:46;;;;;;;1.15;1.10;;;;;;;;;;4983069;28;20110;-78
2023/12/29 05:09:11;;;;;;;1.63;1.35;;;;;;;;;;4963317;28;20111;-79
2023/12/29 05:11:36;;;;;;;1.40;1.30;;;;;;;;;;4978276;28;20053;-79
2023/12/29 05:14:02;;;;;;;5.13;1.20;;;;;;;;;;4984261;28;20071;-78
2023/12/29 05:16:27;;;;;;;2.22;1.30;;;;;;;;;;4965880;28;20039;-78
2023/12/29 05:18:52;;;;;;;1.42;1.25;;;;;;;;;;4996284;28;20046;-78
2023/12/29 05:21:19;;;;;;;1.52;1.30;;;;;;;;;;4993178;28;20027;-78
2023/12/29 05:23:45;;;;;;;1.27;1.13;;;;;;;;;;4983967;28;20039;-77
2023/12/29 05:26:11;;;;;;;1.63;1.30;;;;;;;;;;4965319;28;20201;-78
2023/12/29 05:28:36;;;;;;;1.25;1.15;;;;;;;;;;4982886;28;20062;-78
2023/12/29 05:31:03;;;;;;;1.58;1.48;;;;;;;;;;4983083;28;20038;-79
2023/12/29 05:33:30;;;;;;;1.95;1.23;;;;;;;;;;5001061;28;20137;-78
2023/12/29 05:35:55;;;;;;;1.70;1.30;;;;;;;;;;4999614;28;20073;-78
2023/12/29 05:38:21;;;;;;;1.27;1.13;;;;;;;;;;4985461;28;20046;-78
2023/12/29 05:40:46;;;;;;;4.80;1.83;;;;;;;;;;4984792;28;20035;-79
2023/12/29 05:43:11;;;;;;;1.50;1.40;;;;;;;;;;4964897;28;20058;-78
2023/12/29 05:45:37;;;;;;;1.50;1.40;;;;;;;;;;4979625;28;20031;-78
2023/12/29 05:48:02;;;;;;;1.40;1.30;;;;;;;;;;4988305;28;20037;-79
2023/12/29 05:50:27;;;;;;;1.95;1.75;;;;;;;;;;4951312;28;20105;-78
2023/12/29 05:52:53;;;;;;;1.75;1.48;;;;;;;;;;4964655;28;20058;-77
2023/12/29 05:55:19;;;;;;;1.45;1.35;;;;;;;;;;4981887;28;20496;-77
2023/12/29 05:57:44;;;;;;;1.05;1.05;;;;;;;;;;4977966;28;20328;-77
2023/12/29 06:00:14;;;;;;;2.17;1.40;;;;;;;;;;4989531;28;20027;-78
2023/12/29 06:02:42;;;;;;;1.83;1.52;;;;;;;;;;4976671;28;20433;-79
2023/12/29 06:05:10;;;;;;;1.52;1.30;;;;;;;;;;4976329;28;20035;-79
2023/12/29 06:07:35;;;;;;;1.63;1.23;;;;;;;;;;4976900;28;20098;-79
2023/12/29 06:10:01;;;;;;;1.92;1.80;;;;;;;;;;4975173;28;20058;-79
2023/12/29 06:12:26;;;;;;;2.92;1.88;;;;;;;;;;4985289;28;20038;-77
2023/12/29 06:14:51;;;;;;;4.00;1.83;;;;;;;;;;4998783;28;20035;-77
2023/12/29 06:17:16;;;;;;;1.90;1.45;;;;;;;;;;4993974;28;20398;-79
2023/12/29 06:19:42;;;;;;;1.95;1.40;;;;;;;;;;4984952;28;20169;-77
2023/12/29 06:22:11;;;;;;;1.38;1.27;;;;;;;;;;4959739;28;20034;-79
2023/12/29 06:24:37;;;;;;;1.30;1.20;;;;;;;;;;4957981;28;20031;-79
2023/12/29 06:27:02;;;;;;;2.38;1.60;;;;;;;;;;4979736;28;20030;-77
2023/12/29 06:29:28;;;;;;;2.90;1.40;;;;;;;;;;4978245;28;20050;-77
2023/12/29 06:31:53;;;;;;;1.52;1.40;;;;;;;;;;4975567;28;20070;-80
2023/12/29 06:34:18;;;;;;;1.23;1.20;;;;;;;;;;4974821;28;20517;-79
2023/12/29 06:36:44;;;;;;;1.40;1.30;;;;;;;;;;4968000;28;20039;-78
2023/12/29 06:39:09;;;;;;;2.25;1.70;;;;;;;;;;4985738;28;20034;-78
2023/12/29 06:41:34;;;;;;;2.05;1.40;;;;;;;;;;4998570;28;20035;-79
2023/12/29 06:44:00;;;;;;;2.17;1.67;;;;;;;;;;4989853;28;20070;-77
2023/12/29 06:46:25;;;;;;;6.00;1.70;;;;;;;;;;4957628;28;20034;-77
2023/12/29 06:48:50;;;;;;;5.13;1.75;;;;;;;;;;4975197;28;20125;-79
2023/12/29 06:51:17;;;;;;;1.65;1.30;;;;;;;;;;4976637;28;20031;-78
2023/12/29 06:53:42;;;;;;;1.60;1.50;;;;;;;;;;4978237;28;20043;-78
2023/12/29 06:56:13;;;;;;;2.47;1.60;;;;;;;;;;4992589;28;20073;-77
2023/12/29 06:58:38;;;;;;;1.45;1.35;;;;;;;;;;4988608;28;20519;-77
2023/12/29 07:01:03;;;;;;;1.50;1.40;;;;;;;;;;4979032;28;20035;-78
2023/12/29 07:03:28;;;;;;;1.60;1.50;;;;;;;;;;4978992;28;20403;-77
2023/12/29 07:05:54;;;;;;;1.65;1.40;;;;;;;;;;4939282;29;20364;-79
2023/12/29 07:08:19;;;;;;;1.55;1.45;;;;;;;;;;4985526;28;20147;-79
2023/12/29 07:10:48;;;;;;;1.65;1.55;;;;;;;;;;4976832;28;20050;-79
2023/12/29 07:13:13;;;;;;;3.15;1.80;;;;;;;;;;4993714;28;20038;-77
2023/12/29 07:15:38;;;;;;;1.85;1.75;;;;;;;;;;4994552;28;20185;-79
2023/12/29 07:18:04;;;;;;;2.50;1.20;;;;;;;;;;4995322;28;20027;-77
2023/12/29 07:20:29;;;;;;;1.70;1.33;;;;;;;;;;4994743;28;20145;-79
2023/12/29 07:22:54;;;;;;;1.25;1.20;;;;;;;;;;4977806;28;20121;-79
2023/12/29 07:25:20;;;;;;;1.60;1.45;;;;;;;;;;4970793;28;20530;-79
2023/12/29 07:27:45;;;;;;;1.50;1.40;;;;;;;;;;4957437;28;20034;-79
2023/12/29 07:30:11;;;;;;;1.73;1.48;;;;;;;;;;4975603;28;20066;-78
2023/12/29 07:32:36;;;;;;;1.45;1.35;;;;;;;;;;4979629;28;20511;-78
2023/12/29 07:35:01;;;;;;;4.70;1.02;;;;;;;;;;4982411;28;20057;-78
2023/12/29 07:37:27;;;;;;;3.50;1.48;;;;;;;;;;4990456;28;20027;-77
2023/12/29 07:39:52;;;;;;;2.22;1.70;;;;;;;;;;4949898;28;20081;-78
2023/12/29 07:42:18;;;;;;;1.63;1.20;;;;;;;;;;4975074;28;20031;-79
2023/12/29 07:44:43;;;;;;;1.25;1.23;;;;;;;;;;4985280;28;20080;-79
2023/12/29 07:47:10;;;;;;;2.13;1.63;;;;;;;;;;4994448;28;20031;-78
2023/12/29 07:49:35;;;;;;;1.95;1.20;;;;;;;;;;4990185;28;20038;-78
2023/12/29 07:52:01;;;;;;;1.45;1.35;;;;;;;;;;4961324;28;20499;-79
2023/12/29 07:54:26;;;;;;;1.95;1.20;;;;;;;;;;4975461;28;20034;-78
2023/12/29 07:56:52;;;;;;;1.27;1.17;;;;;;;;;;4975163;28;20055;-78
2023/12/29 07:59:17;;;;;;;2.17;1.40;;;;;;;;;;4978004;28;20085;-78
2023/12/29 08:01:42;;;;;;;1.95;1.13;;;;;;;;;;4996158;28;20043;-78
2023/12/29 08:04:08;;;;;;;2.45;1.50;;;;;;;;;;4998497;28;20038;-80
2023/12/29 08:06:33;;;;;;;1.33;1.23;;;;;;;;;;4977340;28;20046;-79
2023/12/29 08:08:58;;;;;;;1.05;1.05;;;;;;;;;;4994704;28;20418;-79
2023/12/29 08:11:24;;;;;;;1.15;1.13;;;;;;;;;;4994257;28;20030;-77
2023/12/29 08:13:49;;;;;;;2.42;1.30;;;;;;;;;;4993262;28;20468;-77
2023/12/29 08:16:17;;;;;;;1.10;1.05;;;;;;;;;;4994883;28;20682;-79
2023/12/29 08:18:43;;;;;;;1.67;1.02;;;;;;;;;;4983359;28;20030;-79
2023/12/29 08:21:08;;;;;;;1.23;1.23;;;;;;;;;;4976442;28;20030;-79
2023/12/29 08:23:33;;;;;;;4.97;0.90;;;;;;;;;;4978864;28;20054;-77
2023/12/29 08:26:00;;;;;;;0.75;0.75;;;;;;;;;;4980705;28;20460;-79
2023/12/29 08:28:25;;;;;;;1.38;1.15;;;;;;;;;;4960098;28;20088;-79
2023/12/29 08:30:50;;;;;;;1.27;1.17;;;;;;;;;;4978096;28;20043;-79
2023/12/29 08:33:16;;;;;;;0.93;0.93;;;;;;;;;;4977593;28;20027;-78
2023/12/29 08:35:41;;;;;;;1.15;1.10;;;;;;;;;;4981390;28;20037;-78
2023/12/29 08:38:07;;;;;;;1.20;1.10;;;;;;;;;;4980448;28;20042;-77
2023/12/29 08:40:32;;;;;;;2.67;1.38;;;;;;;;;;4979740;28;20039;-78
2023/12/29 08:42:58;;;;;;;1.15;1.02;;;;;;;;;;4990438;28;20035;-77
2023/12/29 08:45:23;;;;;;;8.48;1.15;;;;;;;;;;4996989;28;20121;-79
2023/12/29 08:47:49;;;;;;;0.95;0.95;;;;;;;;;;4995651;28;20030;-78
2023/12/29 08:50:15;;;;;;;0.75;0.73;;;;;;;;;;4997935;28;20525;-79
2023/12/29 08:52:40;;;;;;;2.00;1.20;;;;;;;;;;4999160;28;20085;-77
2023/12/29 08:55:05;;;;;;;0.80;0.80;;;;;;;;;;4984460;28;20038;-79
2023/12/29 08:57:31;;;;;;;0.75;0.75;;;;;;;;;;4977231;28;20050;-79
2023/12/29 08:59:57;;;;;;;0.80;0.80;;;;;;;;;;4961025;28;20031;-79
2023/12/29 09:02:22;;;;;;;1.02;1.02;;;;;;;;;;4959429;28;20045;-77
2023/12/29 09:04:47;;;;;;;0.80;0.80;;;;;;;;;;4976695;28;20042;-77
2023/12/29 09:07:13;;;;;;;0.82;0.82;;;;;;;;;;4942565;28;20042;-77
2023/12/29 09:09:39;;;;;;;0.90;0.90;;;;;;;;;;4974798;28;20030;-78
2023/12/29 09:12:04;;;;;;;0.80;0.80;;;;;;;;;;4995956;28;20030;-78
2023/12/29 09:14:32;;;;;;;0.75;0.75;;;;;;;;;;4979730;28;20062;-79
2023/12/29 09:16:57;;;;;;;1.60;0.90;;;;;;;;;;4962900;28;20058;-79
2023/12/29 09:19:23;;;;;;;0.70;0.70;;;;;;;;;;4998136;28;20045;-78
2023/12/29 09:21:48;;;;;;;0.75;0.70;;;;;;;;;;4998936;28;20030;-78
2023/12/29 09:24:13;;;;;;;1.48;0.90;;;;;;;;;;4992739;28;20180;-77
2023/12/29 09:26:38;;;;;;;0.90;0.90;;;;;;;;;;4983499;28;20050;-77
2023/12/29 09:29:04;;;;;;;0.80;0.80;;;;;;;;;;4972598;28;20030;-77
2023/12/29 09:31:29;;;;;;;0.68;0.68;;;;;;;;;;4998511;28;20248;-77
2023/12/29 09:33:56;;;;;;;1.08;0.90;;;;;;;;;;4981089;28;20034;-77
2023/12/29 09:36:21;;;;;;;1.00;1.00;;;;;;;;;;4997473;28;20053;-80
2023/12/29 09:38:47;;;;;;;2.47;0.80;;;;;;;;;;4996276;28;20585;-79
2023/12/29 09:41:15;;;;;;;0.60;0.60;;;;;;;;;;4995808;28;20030;-78
2023/12/29 09:43:42;;;;;;;0.80;0.80;;;;;;;;;;4998938;28;20090;-78
2023/12/29 09:46:09;;;;;;;0.63;0.63;;;;;;;;;;4998828;28;20065;-80
2023/12/29 09:48:36;;;;;;;3.08;0.70;;;;;;;;;;4996852;28;20202;-77
2023/12/29 09:51:04;;;;;;;0.85;0.80;;;;;;;;;;4980735;28;20038;-77
2023/12/29 09:53:30;;;;;;;0.93;0.77;;;;;;;;;;4995328;28;20122;-79
2023/12/29 09:55:59;;;;;;;0.95;0.90;;;;;;;;;;4995838;28;20455;-77
2023/12/29 09:58:25;;;;;;;0.70;0.70;;;;;;;;;;4983025;28;20046;-78
2023/12/29 10:00:51;;;;;;;1.48;0.90;;;;;;;;;;4961216;28;20034;-78
2023/12/29 10:03:16;;;;;;;0.65;0.65;;;;;;;;;;4987449;28;20141;-78
2023/12/29 10:05:44;;;;;;;0.90;0.90;;;;;;;;;;4996116;28;20510;-78
2023/12/29 10:08:10;;;;;;;0.63;0.63;;;;;;;;;;4994662;28;20029;-78
2023/12/29 10:10:36;;;;;;;0.95;0.95;;;;;;;;;;4997397;28;20035;-78
2023/12/29 10:13:04;;;;;;;0.80;0.80;;;;;;;;;;4995904;28;20553;-78
2023/12/29 10:15:50;;;;;;;0.80;0.80;;;;;;;;;;4981470;28;20117;-79
2023/12/29 10:18:31;;;;;;;0.70;0.70;;;;;;;;;;4976530;28;20043;-77
2023/12/29 10:21:02;;;;;;;1.27;0.80;;;;;;;;;;4987982;28;20038;-77
2023/12/29 10:23:44;;;;;;;1.00;0.95;;;;;;;;;;4996129;28;20391;-77
2023/12/29 10:26:11;;;;;;;0.60;0.60;;;;;;;;;;4997878;28;20059;-77
2023/12/29 10:28:37;;;;;;;1.30;1.00;;;;;;;;;;4990941;28;20418;-78
2023/12/29 10:31:04;;;;;;;0.82;0.82;;;;;;;;;;4977868;28;20069;-78
2023/12/29 10:33:31;;;;;;;0.80;0.80;;;;;;;;;;4961142;28;20043;-78
2023/12/29 10:36:02;;;;;;;0.90;0.90;;;;;;;;;;4978392;28;20070;-77
2023/12/29 10:38:27;;;;;;;0.77;0.77;;;;;;;;;;4977898;28;20640;-77
2023/12/29 10:40:53;;;;;;;0.80;0.65;;;;;;;;;;4977839;28;20126;-78
2023/12/29 10:43:23;;;;;;;0.70;0.70;;;;;;;;;;4978049;28;20038;-78
2023/12/29 10:45:48;;;;;;;3.05;1.10;;;;;;;;;;4988143;28;20034;-77
2023/12/29 10:48:24;;;;;;;1.75;1.05;;;;;;;;;;4996447;28;20026;-78
2023/12/29 10:50:49;;;;;;;0.55;0.55;;;;;;;;;;4997962;28;20045;-78
2023/12/29 10:53:17;;;;;;;0.70;0.70;;;;;;;;;;4997132;28;20069;-78
2023/12/29 10:55:42;;;;;;;0.80;0.80;;;;;;;;;;4997148;28;20042;-79
2023/12/29 10:58:07;;;;;;;0.70;0.70;;;;;;;;;;4987422;28;20042;-78
2023/12/29 11:00:33;;;;;;;0.90;0.90;;;;;;;;;;4993384;28;20117;-77
2023/12/29 11:02:59;;;;;;;0.80;0.80;;;;;;;;;;4992892;28;20125;-77
2023/12/29 11:05:25;;;;;;;0.80;0.80;;;;;;;;;;4993767;28;20038;-78
2023/12/29 11:07:54;;;;;;;0.80;0.80;;;;;;;;;;4992794;28;20039;-78
2023/12/29 11:10:20;;;;;;;0.85;0.85;;;;;;;;;;4976321;28;20026;-78
2023/12/29 11:12:47;;;;;;;0.80;0.80;;;;;;;;;;4994731;28;20491;-77
2023/12/29 11:15:14;;;;;;;0.60;0.60;;;;;;;;;;4984399;28;20022;-78
2023/12/29 11:17:49;;;;;;;0.65;0.65;;;;;;;;;;4995647;28;20037;-77
2023/12/29 11:20:16;;;;;;;0.63;0.63;;;;;;;;;;4979541;28;20054;-79
2023/12/29 11:22:42;;;;;;;0.70;0.57;;;;;;;;;;4976568;28;20042;-78
2023/12/29 11:25:08;;;;;;;0.85;0.85;;;;;;;;;;4978493;28;20047;-77
2023/12/29 11:27:33;;;;;;;1.63;0.95;;;;;;;;;;4982930;28;20035;-77
2023/12/29 11:30:01;;;;;;;1.30;0.80;;;;;;;;;;4965994;28;20077;-77
2023/12/29 11:33:07;;;;;;;0.90;0.90;;;;;;;;;;4965844;28;20122;-77
2023/12/29 11:35:41;;;;;;;0.60;0.60;;;;;;;;;;4925065;28;20043;-77
2023/12/29 11:38:37;;;;;;;0.90;0.90;;;;;;;;;;4978154;28;20038;-77
2023/12/29 11:41:28;;;;;;;0.80;0.77;;;;;;;;;;4993915;28;20463;-78
2023/12/29 11:44:00;;;;;;;0.80;0.80;;;;;;;;;;4994808;28;20563;-77
2023/12/29 11:46:37;;;;;;;0.70;0.70;;;;;;;;;;4982179;28;20038;-79
2023/12/29 11:49:05;;;;;;;0.75;0.75;;;;;;;;;;4973925;28;20122;-79
2023/12/29 11:51:32;;;;;;;0.60;0.60;;;;;;;;;;4967615;28;20051;-78
2023/12/29 11:53:58;;;;;;;3.92;0.90;;;;;;;;;;4976063;28;20050;-78
2023/12/29 11:56:23;;;;;;;0.70;0.70;;;;;;;;;;4980171;28;20043;-78
2023/12/29 11:58:48;;;;;;;0.60;0.60;;;;;;;;;;4987693;28;20038;-78
2023/12/29 12:01:32;;;;;;;0.70;0.70;;;;;;;;;;4998106;28;20533;-78
2023/12/29 12:03:58;;;;;;;1.58;0.68;;;;;;;;;;4999503;28;20031;-79
2023/12/29 12:06:49;;;;;;;2.42;0.70;;;;;;;;;;4986182;28;20566;-79
2023/12/29 12:09:24;;;;;;;0.73;0.73;;;;;;;;;;4975363;28;20035;-78
2023/12/29 12:11:50;;;;;;;1.77;0.70;;;;;;;;;;4997446;28;20064;-77
2023/12/29 12:14:42;;;;;;;0.60;0.60;;;;;;;;;;5002086;28;20092;-78
2023/12/29 12:17:08;;;;;;;0.57;0.57;;;;;;;;;;4994509;28;20039;-78
2023/12/29 12:19:35;;;;;;;0.65;0.65;;;;;;;;;;5002562;28;20502;-77
2023/12/29 12:22:02;;;;;;;0.70;0.70;;;;;;;;;;5001559;28;20035;-77
2023/12/29 12:24:28;;;;;;;0.52;0.50;;;;;;;;;;4981202;28;20073;-79
2023/12/29 12:26:54;;;;;;;0.73;0.60;;;;;;;;;;4983803;28;20045;-78
2023/12/29 12:29:20;;;;;;;0.50;0.50;;;;;;;;;;5001132;28;20047;-78
2023/12/29 12:31:57;;;;;;;0.70;0.70;;;;;;;;;;4999478;28;20049;-77
2023/12/29 12:34:23;;;;;;;1.00;0.88;;;;;;;;;;4978302;28;20407;-78
2023/12/29 12:36:53;;;;;;;0.73;0.73;;;;;;;;;;4977972;28;20035;-79
2023/12/29 12:39:18;;;;;;;0.60;0.60;;;;;;;;;;4996698;28;20041;-78
2023/12/29 12:41:46;;;;;;;0.47;0.47;;;;;;;;;;4982583;28;20498;-78
2023/12/29 12:44:12;;;;;;;1.10;0.68;;;;;;;;;;4998799;28;20065;-79
2023/12/29 12:46:47;;;;;;;0.68;0.68;;;;;;;;;;4980241;28;20061;-79
2023/12/29 12:49:12;;;;;;;0.95;0.80;;;;;;;;;;4997971;28;20077;-79
2023/12/29 12:51:38;;;;;;;0.63;0.63;;;;;;;;;;4985299;28;20035;-78
2023/12/29 12:54:04;;;;;;;0.57;0.57;;;;;;;;;;4982199;28;20046;-78
2023/12/29 12:56:30;;;;;;;0.70;0.70;;;;;;;;;;4982925;28;20034;-79
2023/12/29 12:59:02;;;;;;;0.80;0.80;;;;;;;;;;4959107;28;20046;-79
2023/12/29 13:01:28;;;;;;;1.45;0.60;;;;;;;;;;4977192;28;20447;-79
2023/12/29 13:03:54;;;;;;;0.63;0.63;;;;;;;;;;4959545;28;20413;-78
2023/12/29 13:06:21;;;;;;;0.70;0.70;;;;;;;;;;4962588;28;20117;-78
2023/12/29 13:08:49;;;;;;;0.60;0.60;;;;;;;;;;4977530;28;20443;-79
2023/12/29 13:11:21;;;;;;;0.75;0.75;;;;;;;;;;4959837;28;20120;-79
2023/12/29 13:13:46;;;;;;;0.93;0.65;;;;;;;;;;4976494;28;20147;-77
2023/12/29 13:16:13;;;;;;;1.00;0.70;;;;;;;;;;4960664;28;20066;-79
2023/12/29 13:18:39;;;;;;;0.60;0.60;;;;;;;;;;4978742;28;20033;-78
2023/12/29 13:21:05;;;;;;;0.57;0.57;;;;;;;;;;4979242;28;20043;-78
2023/12/29 13:23:31;;;;;;;0.70;0.70;;;;;;;;;;4981689;28;20046;-78
2023/12/29 13:25:59;;;;;;;0.65;0.65;;;;;;;;;;4963907;28;20049;-78
2023/12/29 13:28:25;;;;;;;0.73;0.73;;;;;;;;;;4981278;28;20038;-79
2023/12/29 13:30:51;;;;;;;1.30;0.73;;;;;;;;;;4976485;28;20034;-79
2023/12/29 13:33:33;;;;;;;0.70;0.70;;;;;;;;;;4975293;28;20133;-79
2023/12/29 13:36:09;;;;;;;0.75;0.75;;;;;;;;;;4959289;28;20126;-78
2023/12/29 13:38:46;;;;;;;0.65;0.63;;;;;;;;;;4976281;28;20030;-78
2023/12/29 13:41:12;;;;;;;0.60;0.60;;;;;;;;;;4960463;28;20042;-78
2023/12/29 13:43:42;;;;;;;0.60;0.60;;;;;;;;;;4977776;28;20138;-78
2023/12/29 13:46:10;;;;;;;0.70;0.70;;;;;;;;;;4980311;28;20037;-77
2023/12/29 13:48:36;;;;;;;0.60;0.60;;;;;;;;;;4979153;28;20042;-78
2023/12/29 13:51:01;;;;;;;1.50;0.98;;;;;;;;;;4980610;28;20085;-77
2023/12/29 13:53:27;;;;;;;0.85;0.82;;;;;;;;;;4980328;28;20031;-77
2023/12/29 13:55:52;;;;;;;0.73;0.73;;;;;;;;;;4976306;28;20138;-78
2023/12/29 13:58:17;;;;;;;0.60;0.60;;;;;;;;;;4957988;28;20065;-77
2023/12/29 14:00:46;;;;;;;0.60;0.60;;;;;;;;;;4975069;28;20126;-78
2023/12/29 14:03:28;;;;;;;0.65;0.65;;;;;;;;;;4975928;28;20042;-78
2023/12/29 14:06:00;;;;;;;0.60;0.60;;;;;;;;;;4970774;28;20066;-76
2023/12/29 14:08:34;;;;;;;0.70;0.70;;;;;;;;;;4956138;28;20043;-78
2023/12/29 14:10:59;;;;;;;0.65;0.65;;;;;;;;;;4959928;28;20067;-78
2023/12/29 14:13:26;;;;;;;0.70;0.65;;;;;;;;;;4960223;28;20334;-77
2023/12/29 14:15:51;;;;;;;0.60;0.60;;;;;;;;;;4960499;29;20058;-78
2023/12/29 14:18:41;;;;;;;0.70;0.70;;;;;;;;;;4960406;28;20035;-77
2023/12/29 14:21:29;;;;;;;0.60;0.60;;;;;;;;;;4960051;28;20114;-77
2023/12/29 14:24:09;;;;;;;0.70;0.70;;;;;;;;;;4943144;29;20071;-77
2023/12/29 14:26:35;;;;;;;0.70;0.70;;;;;;;;;;4943696;29;20492;-78
2023/12/29 14:29:05;;;;;;;0.70;0.70;;;;;;;;;;4979222;28;20125;-79
2023/12/29 14:31:36;;;;;;;0.80;0.80;;;;;;;;;;4981652;28;20125;-77
2023/12/29 14:34:02;;;;;;;0.80;0.70;;;;;;;;;;4978414;28;20035;-78
2023/12/29 14:36:28;;;;;;;1.02;0.70;;;;;;;;;;4978627;28;20094;-77
2023/12/29 14:38:53;;;;;;;0.82;0.80;;;;;;;;;;4979063;28;20403;-78
2023/12/29 14:41:18;;;;;;;0.77;0.77;;;;;;;;;;4975222;28;20534;-78